createdAt,value
2019-03-18T00:00:19.585Z,6.36
2019-03-18T00:02:48.101Z,6.33
2019-03-18T00:05:16.307Z,6.25
2019-03-18T00:07:44.495Z,6.19
2019-03-18T00:10:12.960Z,6.10
2019-03-18T00:12:41.138Z,6.02
2019-03-18T00:15:09.993Z,5.94
2019-03-18T00:17:38.546Z,5.84
2019-03-18T00:20:08.806Z,5.86
2019-03-18T00:22:37.551Z,5.81
2019-03-18T00:25:14.051Z,5.78
2019-03-18T00:27:42.314Z,5.68
2019-03-18T00:30:18.499Z,5.76
2019-03-18T00:32:46.726Z,5.72
2019-03-18T00:35:14.923Z,5.79
2019-03-18T00:37:43.205Z,5.80
2019-03-18T00:40:13.924Z,5.69
2019-03-18T00:42:43.697Z,5.64
2019-03-18T00:45:15.229Z,5.54
2019-03-18T00:47:42.090Z,5.48
2019-03-18T00:50:15.949Z,5.50
2019-03-18T00:52:45.998Z,5.62
2019-03-18T00:55:14.293Z,5.66
2019-03-18T00:57:42.549Z,5.73
2019-03-18T01:00:17.993Z,5.69
2019-03-18T01:02:49.328Z,5.66
2019-03-18T01:05:16.329Z,5.60
2019-03-18T01:07:44.502Z,5.57
2019-03-18T01:10:14.816Z,5.55
2019-03-18T01:12:45.987Z,5.56
2019-03-18T01:15:26.814Z,5.53
2019-03-18T01:17:44.271Z,5.53
2019-03-18T01:20:13.600Z,5.46
2019-03-18T01:22:41.792Z,5.34
2019-03-18T01:25:11.155Z,5.47
2019-03-18T01:27:39.548Z,5.39
2019-03-18T01:30:10.427Z,5.33
2019-03-18T01:32:44.812Z,5.31
2019-03-18T01:35:12.945Z,5.30
2019-03-18T01:37:41.116Z,5.29
2019-03-18T01:40:13.813Z,5.43
2019-03-18T01:42:42.515Z,5.65
2019-03-18T01:45:11.937Z,5.50
2019-03-18T01:47:41.848Z,5.37
2019-03-18T01:50:14.377Z,5.39
2019-03-18T01:52:42.664Z,5.45
2019-03-18T01:55:11.306Z,5.28
2019-03-18T01:57:39.566Z,5.34
2019-03-18T02:00:11.104Z,5.37
2019-03-18T02:02:39.662Z,5.38
2019-03-18T02:05:11.170Z,5.44
2019-03-18T02:07:39.373Z,5.42
2019-03-18T02:10:12.784Z,5.46
2019-03-18T02:12:41.072Z,5.37
2019-03-18T02:15:13.708Z,5.43
2019-03-18T02:17:46.519Z,5.36
2019-03-18T02:20:19.204Z,5.23
2019-03-18T02:22:47.759Z,5.23
2019-03-18T02:25:17.316Z,5.11
2019-03-18T02:27:45.569Z,5.15
2019-03-18T02:30:20.214Z,5.27
2019-03-18T02:32:48.456Z,5.09
2019-03-18T02:35:16.838Z,5.14
2019-03-18T02:37:45.074Z,5.24
2019-03-18T02:40:13.528Z,5.15
2019-03-18T02:42:41.735Z,5.05
2019-03-18T02:45:12.747Z,5.13
2019-03-18T02:47:41.017Z,5.09
2019-03-18T02:50:10.531Z,5.05
2019-03-18T02:52:38.798Z,5.00
2019-03-18T02:55:08.173Z,5.00
2019-03-18T02:57:38.745Z,4.97
2019-03-18T03:00:10.169Z,4.94
2019-03-18T03:02:38.688Z,4.86
2019-03-18T03:05:08.726Z,4.79
2019-03-18T03:07:40.636Z,4.72
2019-03-18T03:10:11.292Z,4.67
2019-03-18T03:12:39.554Z,4.62
2019-03-18T03:15:10.699Z,4.61
2019-03-18T03:17:40.569Z,4.60
2019-03-18T03:20:14.066Z,4.55
2019-03-18T03:22:44.460Z,4.53
2019-03-18T03:25:12.417Z,4.64
2019-03-18T03:27:40.932Z,4.59
2019-03-18T03:30:17.644Z,4.60
2019-03-18T03:32:45.552Z,4.69
2019-03-18T03:35:14.224Z,4.72
2019-03-18T03:37:45.486Z,4.67
2019-03-18T03:40:14.019Z,4.67
2019-03-18T03:42:42.289Z,4.78
2019-03-18T03:45:12.583Z,4.73
2019-03-18T03:47:40.789Z,4.85
2019-03-18T03:50:12.397Z,4.93
2019-03-18T03:52:40.662Z,4.82
2019-03-18T03:55:12.918Z,4.94
2019-03-18T03:57:45.254Z,4.95
2019-03-18T04:00:14.566Z,4.95
2019-03-18T04:02:43.083Z,5.01
2019-03-18T04:05:11.408Z,4.91
2019-03-18T04:07:41.291Z,4.99
2019-03-18T04:10:11.507Z,4.92
2019-03-18T04:12:44.433Z,4.97
2019-03-18T04:15:11.544Z,5.00
2019-03-18T04:17:39.751Z,5.03
2019-03-18T04:20:11.147Z,5.11
2019-03-18T04:22:39.616Z,5.26
2019-03-18T04:25:08.436Z,5.34
2019-03-18T04:27:36.900Z,5.44
2019-03-18T04:30:13.229Z,5.53
2019-03-18T04:32:41.837Z,5.61
2019-03-18T04:35:10.314Z,5.71
2019-03-18T04:37:38.498Z,5.86
2019-03-18T04:40:14.504Z,5.82
2019-03-18T04:42:40.048Z,5.84
2019-03-18T04:45:14.307Z,5.86
2019-03-18T04:47:42.745Z,5.92
2019-03-18T04:50:12.174Z,5.99
2019-03-18T04:52:40.335Z,6.02
2019-03-18T04:55:08.954Z,6.01
2019-03-18T04:57:37.122Z,5.97
2019-03-18T05:00:08.131Z,6.06
2019-03-18T05:02:36.324Z,5.97
2019-03-18T05:05:04.658Z,6.10
2019-03-18T05:07:32.816Z,6.12
2019-03-18T05:10:01.729Z,6.21
2019-03-18T05:12:29.915Z,6.24
2019-03-18T05:14:58.077Z,6.29
2019-03-18T05:17:27.110Z,6.34
2019-03-18T05:19:55.470Z,6.43
2019-03-18T05:22:23.636Z,6.54
2019-03-18T05:24:52.198Z,6.41
2019-03-18T05:27:20.362Z,6.52
2019-03-18T05:29:48.852Z,6.47
2019-03-18T05:32:17.029Z,6.46
2019-03-18T05:34:45.220Z,6.40
2019-03-18T05:37:13.390Z,6.36
2019-03-18T05:39:41.585Z,6.31
2019-03-18T05:42:09.803Z,6.37
2019-03-18T05:44:37.974Z,6.33
2019-03-18T05:47:06.470Z,6.36
2019-03-18T05:49:34.952Z,6.51
2019-03-18T05:52:03.151Z,6.53
2019-03-18T05:54:31.704Z,6.41
2019-03-18T05:56:59.886Z,6.59
2019-03-18T05:59:28.094Z,6.62
2019-03-18T06:01:56.298Z,6.61
2019-03-18T06:04:26.226Z,6.66
2019-03-18T06:06:54.723Z,6.84
2019-03-18T06:09:24.837Z,6.73
2019-03-18T06:11:53.127Z,6.69
2019-03-18T06:14:21.341Z,6.58
2019-03-18T06:16:49.772Z,6.58
2019-03-18T06:19:18.259Z,6.66
2019-03-18T06:24:16.862Z,6.78
2019-03-18T06:26:45.125Z,6.73
2019-03-18T06:29:13.725Z,6.68
2019-03-18T06:31:41.940Z,6.69
2019-03-18T06:34:10.203Z,6.74
2019-03-18T06:36:38.396Z,6.86
2019-03-18T06:39:06.966Z,6.84
2019-03-18T06:41:35.159Z,6.91
2019-03-18T06:44:03.333Z,6.94
2019-03-18T06:46:31.591Z,6.99
2019-03-18T06:49:00.797Z,6.96
2019-03-18T06:51:29.248Z,6.97
2019-03-18T06:54:00.106Z,7.06
2019-03-18T06:56:33.650Z,7.07
2019-03-18T06:59:10.638Z,7.18
2019-03-18T07:01:41.172Z,7.35
2019-03-18T07:05:22.009Z,7.36
2019-03-18T07:06:41.007Z,7.34
2019-03-18T07:09:18.989Z,7.33
2019-03-18T07:12:27.925Z,7.28
2019-03-18T07:14:54.694Z,7.50
2019-03-18T07:17:06.907Z,7.51
2019-03-18T07:19:35.123Z,7.89
2019-03-18T07:22:05.972Z,8.23
2019-03-18T07:24:34.160Z,8.40
2019-03-18T07:27:02.347Z,8.53
2019-03-18T07:29:30.586Z,8.53
2019-03-18T07:31:58.828Z,8.37
2019-03-18T07:34:27.061Z,8.47
2019-03-18T07:36:55.270Z,8.47
2019-03-18T07:39:23.560Z,8.34
2019-03-18T07:41:51.846Z,8.54
2019-03-18T07:44:20.093Z,8.34
2019-03-18T07:46:48.625Z,8.61
2019-03-18T07:49:16.846Z,8.59
2019-03-18T07:51:45.035Z,8.71
2019-03-18T07:54:13.246Z,8.72
2019-03-18T07:56:42.058Z,8.84
2019-03-18T07:59:10.328Z,8.83
2019-03-18T08:01:38.515Z,8.88
2019-03-18T08:04:06.724Z,8.95
2019-03-18T08:06:34.913Z,8.72
2019-03-18T08:09:03.187Z,8.90
2019-03-18T08:11:31.372Z,9.03
2019-03-18T08:13:59.609Z,9.10
2019-03-18T08:16:28.995Z,9.13
2019-03-18T08:18:57.530Z,9.22
2019-03-18T08:21:26.017Z,9.18
2019-03-18T08:23:54.259Z,9.03
2019-03-18T08:26:22.524Z,9.25
2019-03-18T08:28:50.777Z,9.22
2019-03-18T08:31:19.317Z,9.19
2019-03-18T08:33:47.535Z,9.61
2019-03-18T08:36:16.180Z,10.12
2019-03-18T08:38:44.388Z,9.99
2019-03-18T08:41:12.624Z,10.25
2019-03-18T08:43:41.117Z,10.10
2019-03-18T08:46:09.312Z,10.08
2019-03-18T08:48:37.519Z,9.96
2019-03-18T08:51:05.694Z,9.87
2019-03-18T08:53:36.804Z,9.83
2019-03-18T08:56:05.334Z,9.71
2019-03-18T08:58:33.824Z,9.69
2019-03-18T09:01:02.325Z,9.94
2019-03-18T09:03:30.548Z,9.51
2019-03-18T09:06:01.131Z,10.15
2019-03-18T09:08:29.111Z,12.03
2019-03-18T09:10:57.298Z,14.30
2019-03-18T09:13:25.521Z,14.73
2019-03-18T09:15:53.719Z,14.47
2019-03-18T09:18:21.919Z,15.34
2019-03-18T09:20:50.455Z,16.41
2019-03-18T09:23:18.760Z,17.63
2019-03-18T09:25:47.213Z,15.84
2019-03-18T09:28:15.707Z,15.40
2019-03-18T09:30:43.900Z,15.93
2019-03-18T09:33:14.077Z,14.25
2019-03-18T09:35:42.360Z,13.41
2019-03-18T09:38:10.579Z,13.28
2019-03-18T09:40:39.115Z,12.90
2019-03-18T09:43:07.324Z,12.01
2019-03-18T09:45:35.548Z,11.69
2019-03-18T09:48:03.774Z,11.15
2019-03-18T09:50:31.981Z,11.48
2019-03-18T09:53:00.208Z,11.10
2019-03-18T09:55:28.422Z,10.56
2019-03-18T09:57:56.650Z,10.96
2019-03-18T10:00:25.113Z,11.05
2019-03-18T10:02:53.690Z,10.92
2019-03-18T10:05:21.864Z,11.30
2019-03-18T10:07:50.452Z,11.76
2019-03-18T10:10:18.666Z,11.89
2019-03-18T10:12:46.853Z,11.79
2019-03-18T10:15:17.556Z,11.54
2019-03-18T10:17:45.772Z,11.09
2019-03-18T10:20:14.271Z,11.21
2019-03-18T10:22:42.482Z,11.07
2019-03-18T10:25:10.852Z,10.71
2019-03-18T10:27:39.026Z,10.52
2019-03-18T10:30:12.443Z,10.18
2019-03-18T10:32:41.075Z,13.81
2019-03-18T10:35:10.175Z,16.12
2019-03-18T10:37:38.450Z,14.89
2019-03-18T10:40:09.741Z,14.98
2019-03-18T10:42:38.282Z,15.95
2019-03-18T10:45:08.794Z,14.93
2019-03-18T10:47:37.283Z,15.07
2019-03-18T10:50:08.867Z,14.81
2019-03-18T10:52:37.446Z,15.92
2019-03-18T10:55:07.387Z,17.73
2019-03-18T10:57:35.836Z,16.83
2019-03-18T11:00:07.198Z,16.61
2019-03-18T11:02:35.400Z,16.76
2019-03-18T11:05:04.659Z,18.12
2019-03-18T11:07:33.114Z,15.63
2019-03-18T11:10:01.294Z,13.74
2019-03-18T11:12:29.490Z,16.34
2019-03-18T11:14:57.963Z,17.46
2019-03-18T11:17:26.169Z,18.07
2019-03-18T11:19:58.692Z,17.49
2019-03-18T11:22:24.326Z,16.16
2019-03-18T11:24:52.782Z,15.28
2019-03-18T11:27:20.959Z,14.45
2019-03-18T11:29:49.161Z,15.23
2019-03-18T11:32:17.610Z,17.07
2019-03-18T11:34:45.807Z,18.20
2019-03-18T11:37:14.417Z,19.23
2019-03-18T11:39:42.621Z,19.45
2019-03-18T11:42:11.144Z,16.40
2019-03-18T11:44:39.333Z,15.75
2019-03-18T11:47:07.515Z,15.58
2019-03-18T11:49:39.854Z,14.65
2019-03-18T11:52:05.629Z,13.50
2019-03-18T11:54:33.952Z,12.89
2019-03-18T11:57:02.292Z,12.35
2019-03-18T11:59:30.511Z,11.91
2019-03-18T12:01:58.714Z,11.56
2019-03-18T12:04:27.233Z,10.89
2019-03-18T12:06:55.440Z,10.15
2019-03-18T12:09:23.882Z,9.56
2019-03-18T12:11:52.089Z,9.31
2019-03-18T12:14:20.338Z,9.26
2019-03-18T12:16:48.514Z,9.53
2019-03-18T12:19:16.710Z,9.51
2019-03-18T12:21:45.155Z,9.66
2019-03-18T12:24:13.739Z,9.81
2019-03-18T12:26:42.327Z,9.68
2019-03-18T12:29:10.527Z,9.78
2019-03-18T12:31:38.693Z,10.22
2019-03-18T12:34:07.146Z,10.57
2019-03-18T12:36:35.358Z,10.95
2019-03-18T12:39:05.466Z,11.51
2019-03-18T12:41:33.713Z,11.33
2019-03-18T12:44:01.989Z,10.95
2019-03-18T12:46:30.471Z,11.23
2019-03-18T12:48:58.647Z,10.73
2019-03-18T12:51:26.819Z,10.80
2019-03-18T12:53:55.298Z,11.07
2019-03-18T12:56:23.774Z,11.02
2019-03-18T12:58:51.954Z,11.17
2019-03-18T13:01:20.432Z,11.25
2019-03-18T13:03:48.611Z,11.27
2019-03-18T13:06:16.782Z,11.71
2019-03-18T13:08:44.974Z,11.99
2019-03-18T13:11:13.154Z,12.08
2019-03-18T13:13:41.356Z,12.26
2019-03-18T13:16:09.994Z,11.85
2019-03-18T13:18:38.153Z,11.67
2019-03-18T13:21:07.999Z,12.04
2019-03-18T13:23:36.557Z,12.15
2019-03-18T13:26:04.721Z,12.19
2019-03-18T13:28:32.917Z,12.25
2019-03-18T13:31:01.090Z,12.34
2019-03-18T13:33:29.650Z,12.21
2019-03-18T13:35:57.843Z,12.35
2019-03-18T13:38:26.302Z,12.78
2019-03-18T13:40:54.580Z,12.46
2019-03-18T13:43:23.176Z,12.81
2019-03-18T13:45:55.692Z,12.75
2019-03-18T13:48:21.278Z,13.61
2019-03-18T13:50:49.807Z,13.86
2019-03-18T13:53:18.308Z,13.73
2019-03-18T13:55:46.529Z,13.20
2019-03-18T13:58:15.071Z,12.96
2019-03-18T14:00:43.650Z,12.86
2019-03-18T14:03:12.135Z,12.90
2019-03-18T14:05:40.640Z,12.94
2019-03-18T14:08:08.846Z,12.69
2019-03-18T14:10:37.101Z,12.14
2019-03-18T14:13:05.298Z,11.74
2019-03-18T14:15:33.485Z,10.76
2019-03-18T14:18:01.654Z,8.62
2019-03-18T14:20:30.115Z,7.86
2019-03-18T14:22:58.288Z,7.80
2019-03-18T14:25:26.465Z,7.59
2019-03-18T14:27:54.643Z,7.62
2019-03-18T14:30:23.466Z,7.96
2019-03-18T14:32:51.666Z,7.82
2019-03-18T14:35:21.264Z,7.96
2019-03-18T14:37:50.054Z,8.80
2019-03-18T14:40:19.744Z,9.99
2019-03-18T14:42:47.940Z,10.11
2019-03-18T14:45:20.865Z,9.99
2019-03-18T14:47:49.013Z,9.83
2019-03-18T14:50:18.495Z,9.78
2019-03-18T14:52:46.674Z,10.51
2019-03-18T14:55:15.728Z,10.37
2019-03-18T14:57:44.164Z,10.15
2019-03-18T15:00:25.367Z,10.04
2019-03-18T15:02:53.581Z,10.13
2019-03-18T15:05:21.809Z,9.69
2019-03-18T15:07:49.985Z,9.62
2019-03-18T15:10:20.152Z,10.01
2019-03-18T15:12:48.626Z,9.98
2019-03-18T15:15:18.142Z,9.83
2019-03-18T15:17:46.394Z,9.65
2019-03-18T15:20:19.738Z,9.80
2019-03-18T15:22:47.920Z,9.97
2019-03-18T15:25:25.131Z,10.38
2019-03-18T15:27:53.304Z,10.57
2019-03-18T15:30:22.006Z,10.54
2019-03-18T15:32:50.645Z,10.69
2019-03-18T15:35:19.090Z,10.63
2019-03-18T15:37:47.259Z,10.64
2019-03-18T15:40:20.405Z,10.71
2019-03-18T15:42:48.588Z,10.72
2019-03-18T15:45:20.725Z,11.00
2019-03-18T15:47:49.156Z,10.92
2019-03-18T15:50:19.853Z,10.77
2019-03-18T15:52:48.121Z,10.75
2019-03-18T15:55:16.380Z,10.85
2019-03-18T15:57:44.676Z,10.85
2019-03-18T16:00:18.746Z,10.63
2019-03-18T16:02:46.909Z,10.65
2019-03-18T16:05:15.490Z,10.47
2019-03-18T16:07:43.654Z,10.44
2019-03-18T16:10:16.206Z,10.30
2019-03-18T16:12:44.382Z,10.33
2019-03-18T16:15:14.959Z,10.35
2019-03-18T16:17:43.411Z,10.30
2019-03-18T16:20:14.017Z,10.22
2019-03-18T16:22:42.182Z,10.12
2019-03-18T16:25:11.402Z,9.88
2019-03-18T16:27:39.600Z,10.06
2019-03-18T16:30:15.544Z,10.07
2019-03-18T16:32:43.773Z,9.78
2019-03-18T16:35:15.924Z,9.70
2019-03-18T16:37:43.623Z,9.74
2019-03-18T16:40:16.619Z,9.88
2019-03-18T16:42:44.818Z,9.98
2019-03-18T16:45:14.758Z,10.17
2019-03-18T16:47:43.061Z,10.12
2019-03-18T16:50:13.611Z,10.23
2019-03-18T16:52:41.806Z,10.11
2019-03-18T16:55:10.499Z,10.12
2019-03-18T16:57:38.763Z,10.13
2019-03-18T17:00:13.106Z,10.13
2019-03-18T17:02:41.310Z,10.08
2019-03-18T17:05:09.953Z,10.10
2019-03-18T17:07:38.244Z,10.04
2019-03-18T17:10:09.643Z,10.08
2019-03-18T17:12:38.251Z,10.02
2019-03-18T17:15:09.367Z,9.87
2019-03-18T17:17:37.537Z,9.83
2019-03-18T17:20:09.101Z,9.75
2019-03-18T17:22:48.229Z,9.51
2019-03-18T17:25:10.282Z,9.45
2019-03-18T17:27:38.476Z,9.61
2019-03-18T17:30:17.565Z,9.38
2019-03-18T17:32:46.572Z,9.45
2019-03-18T17:35:15.035Z,9.50
2019-03-18T17:37:43.222Z,9.53
2019-03-18T17:40:15.667Z,9.57
2019-03-18T17:42:44.167Z,9.60
2019-03-18T17:45:15.005Z,9.48
2019-03-18T17:47:43.319Z,9.44
2019-03-18T17:50:14.838Z,9.46
2019-03-18T17:52:43.410Z,9.48
2019-03-18T17:55:11.712Z,9.40
2019-03-18T17:57:39.885Z,9.15
2019-03-18T18:00:12.120Z,9.17
2019-03-18T18:02:40.309Z,9.07
2019-03-18T18:05:08.488Z,9.00
2019-03-18T18:07:38.487Z,8.96
2019-03-18T18:10:09.631Z,8.88
2019-03-18T18:12:37.981Z,8.79
2019-03-18T18:15:08.526Z,8.80
2019-03-18T18:17:36.714Z,8.76
2019-03-18T18:20:10.667Z,8.72
2019-03-18T18:22:41.325Z,8.72
2019-03-18T18:25:12.508Z,8.43
2019-03-18T18:27:42.293Z,8.36
2019-03-18T18:30:19.107Z,8.36
2019-03-18T18:32:52.194Z,8.30
2019-03-18T18:56:58.001Z,8.01
2019-03-18T19:29:18.716Z,7.51
2019-03-18T20:38:34.269Z,6.02
2019-03-18T20:41:08.563Z,5.93
2019-03-18T20:43:44.704Z,5.88
2019-03-18T20:54:31.847Z,5.66
2019-03-18T20:57:17.991Z,5.63
2019-03-18T21:02:36.474Z,5.49
2019-03-18T21:05:06.703Z,5.45
2019-03-18T21:07:36.452Z,5.42
2019-03-18T21:10:11.742Z,5.39
2019-03-18T21:12:41.940Z,5.37
2019-03-18T21:15:16.916Z,5.33
2019-03-18T21:17:45.199Z,-135.60
2019-03-18T21:20:20.616Z,-135.60
2019-03-18T21:22:48.837Z,-135.60
2019-03-18T21:25:36.799Z,-135.60
